sensor_id;sensor_type;location;lat;lon;timestamp;pressure;altitude;pressure_sealevel;temperature;humidity
11329;BME280;5719;42.714;23.732;2022-07-22T00:00:54;94544.06;;;17.93;82.58
11329;BME280;5719;42.714;23.732;2022-07-22T00:03:21;94555.50;;;17.92;82.80
11329;BME280;5719;42.714;23.732;2022-07-22T00:05:48;94546.84;;;17.91;82.77
11329;BME280;5719;42.714;23.732;2022-07-22T00:08:16;94545.06;;;17.92;82.34
11329;BME280;5719;42.714;23.732;2022-07-22T00:10:43;94546.00;;;17.91;82.44
11329;BME280;5719;42.714;23.732;2022-07-22T00:13:10;94545.88;;;17.75;83.11
11329;BME280;5719;42.714;23.732;2022-07-22T00:15:37;94554.31;;;17.51;85.11
11329;BME280;5719;42.714;23.732;2022-07-22T00:18:04;94548.94;;;17.52;85.15
11329;BME280;5719;42.714;23.732;2022-07-22T00:20:31;94547.63;;;17.48;85.68
11329;BME280;5719;42.714;23.732;2022-07-22T00:22:58;94547.63;;;17.48;85.72
11329;BME280;5719;42.714;23.732;2022-07-22T00:25:26;94550.22;;;17.48;85.72
11329;BME280;5719;42.714;23.732;2022-07-22T00:27:54;94551.09;;;17.39;85.95
11329;BME280;5719;42.714;23.732;2022-07-22T00:30:21;94542.53;;;17.29;87.35
11329;BME280;5719;42.714;23.732;2022-07-22T00:32:48;94546.78;;;17.30;87.41
11329;BME280;5719;42.714;23.732;2022-07-22T00:35:15;94547.38;;;17.24;88.24
11329;BME280;5719;42.714;23.732;2022-07-22T00:37:42;94544.66;;;17.16;88.30
11329;BME280;5719;42.714;23.732;2022-07-22T00:40:10;94552.81;;;17.13;88.76
11329;BME280;5719;42.714;23.732;2022-07-22T00:42:38;94549.88;;;17.16;88.24
11329;BME280;5719;42.714;23.732;2022-07-22T00:45:07;94545.50;;;17.16;88.52
11329;BME280;5719;42.714;23.732;2022-07-22T00:47:34;94533.91;;;17.01;88.90
11329;BME280;5719;42.714;23.732;2022-07-22T00:50:01;94545.88;;;17.04;89.79
11329;BME280;5719;42.714;23.732;2022-07-22T00:52:28;94551.91;;;17.04;89.75
11329;BME280;5719;42.714;23.732;2022-07-22T00:54:56;94545.28;;;17.10;89.07
11329;BME280;5719;42.714;23.732;2022-07-22T00:57:24;94546.63;;;17.14;88.21
11329;BME280;5719;42.714;23.732;2022-07-22T00:59:52;94543.78;;;17.07;88.53
11329;BME280;5719;42.714;23.732;2022-07-22T01:02:19;94550.94;;;17.05;87.16
11329;BME280;5719;42.714;23.732;2022-07-22T01:04:46;94542.13;;;17.06;87.87
11329;BME280;5719;42.714;23.732;2022-07-22T01:07:13;94547.22;;;17.08;87.29
11329;BME280;5719;42.714;23.732;2022-07-22T01:09:42;94542.25;;;17.05;88.24
11329;BME280;5719;42.714;23.732;2022-07-22T01:12:09;94543.69;;;16.99;88.30
11329;BME280;5719;42.714;23.732;2022-07-22T01:14:36;94539.59;;;16.97;89.61
11329;BME280;5719;42.714;23.732;2022-07-22T01:17:04;94537.94;;;16.96;91.70
11329;BME280;5719;42.714;23.732;2022-07-22T01:19:31;94534.41;;;16.87;92.13
11329;BME280;5719;42.714;23.732;2022-07-22T01:22:00;94540.09;;;16.83;91.24
11329;BME280;5719;42.714;23.732;2022-07-22T01:24:27;94545.44;;;16.81;90.07
11329;BME280;5719;42.714;23.732;2022-07-22T01:26:54;94542.00;;;16.81;90.98
11329;BME280;5719;42.714;23.732;2022-07-22T01:29:21;94543.56;;;16.74;90.64
11329;BME280;5719;42.714;23.732;2022-07-22T01:31:48;94539.22;;;16.64;89.67
11329;BME280;5719;42.714;23.732;2022-07-22T01:34:15;94541.38;;;16.69;89.08
11329;BME280;5719;42.714;23.732;2022-07-22T01:36:42;94536.63;;;16.64;89.35
11329;BME280;5719;42.714;23.732;2022-07-22T01:39:10;94528.78;;;16.64;89.00
11329;BME280;5719;42.714;23.732;2022-07-22T01:41:37;94533.19;;;16.64;88.51
11329;BME280;5719;42.714;23.732;2022-07-22T01:44:04;94527.28;;;16.62;89.46
11329;BME280;5719;42.714;23.732;2022-07-22T01:46:31;94533.78;;;16.48;89.60
11329;BME280;5719;42.714;23.732;2022-07-22T01:48:58;94541.59;;;16.48;88.87
11329;BME280;5719;42.714;23.732;2022-07-22T01:51:25;94538.75;;;16.42;90.32
11329;BME280;5719;42.714;23.732;2022-07-22T01:53:52;94534.34;;;16.42;90.24
11329;BME280;5719;42.714;23.732;2022-07-22T01:56:20;94534.06;;;16.45;90.50
11329;BME280;5719;42.714;23.732;2022-07-22T01:58:47;94539.56;;;16.42;90.82
11329;BME280;5719;42.714;23.732;2022-07-22T02:01:14;94535.91;;;16.35;91.59
11329;BME280;5719;42.714;23.732;2022-07-22T02:03:40;94533.41;;;16.34;92.91
11329;BME280;5719;42.714;23.732;2022-07-22T02:06:07;94539.16;;;16.37;92.55
11329;BME280;5719;42.714;23.732;2022-07-22T02:08:34;94533.00;;;16.29;91.21
11329;BME280;5719;42.714;23.732;2022-07-22T02:11:01;94538.28;;;16.19;92.16
11329;BME280;5719;42.714;23.732;2022-07-22T02:13:30;94532.75;;;16.22;90.60
11329;BME280;5719;42.714;23.732;2022-07-22T02:15:57;94529.50;;;16.20;90.82
11329;BME280;5719;42.714;23.732;2022-07-22T02:18:24;94533.09;;;16.09;91.30
11329;BME280;5719;42.714;23.732;2022-07-22T02:20:51;94532.56;;;16.06;92.28
11329;BME280;5719;42.714;23.732;2022-07-22T02:23:18;94535.44;;;16.03;93.05
11329;BME280;5719;42.714;23.732;2022-07-22T02:25:46;94536.16;;;15.95;92.94
11329;BME280;5719;42.714;23.732;2022-07-22T02:28:13;94531.50;;;15.99;93.92
11329;BME280;5719;42.714;23.732;2022-07-22T02:30:41;94537.69;;;15.88;95.13
11329;BME280;5719;42.714;23.732;2022-07-22T02:33:08;94539.47;;;15.88;94.27
11329;BME280;5719;42.714;23.732;2022-07-22T02:35:35;94539.19;;;15.91;93.08
11329;BME280;5719;42.714;23.732;2022-07-22T02:38:02;94544.69;;;15.88;94.49
11329;BME280;5719;42.714;23.732;2022-07-22T02:40:30;94537.84;;;15.77;93.57
11329;BME280;5719;42.714;23.732;2022-07-22T02:42:56;94542.34;;;15.85;93.46
11329;BME280;5719;42.714;23.732;2022-07-22T02:45:23;94539.47;;;15.78;93.80
11329;BME280;5719;42.714;23.732;2022-07-22T02:47:53;94541.41;;;15.76;93.73
11329;BME280;5719;42.714;23.732;2022-07-22T02:50:21;94538.09;;;15.74;94.01
11329;BME280;5719;42.714;23.732;2022-07-22T02:52:48;94541.16;;;15.69;94.11
11329;BME280;5719;42.714;23.732;2022-07-22T02:55:15;94534.00;;;15.72;93.96
11329;BME280;5719;42.714;23.732;2022-07-22T02:57:42;94542.91;;;15.59;95.43
11329;BME280;5719;42.714;23.732;2022-07-22T03:00:10;94532.25;;;15.62;94.41
11329;BME280;5719;42.714;23.732;2022-07-22T03:02:38;94536.19;;;15.66;94.02
11329;BME280;5719;42.714;23.732;2022-07-22T03:05:08;94542.09;;;15.68;94.01
11329;BME280;5719;42.714;23.732;2022-07-22T03:07:35;94529.91;;;15.69;93.13
11329;BME280;5719;42.714;23.732;2022-07-22T03:10:03;94530.16;;;15.76;92.96
11329;BME280;5719;42.714;23.732;2022-07-22T03:12:30;94530.97;;;15.76;92.96
11329;BME280;5719;42.714;23.732;2022-07-22T03:14:57;94524.81;;;15.67;92.68
11329;BME280;5719;42.714;23.732;2022-07-22T03:17:24;94538.38;;;15.71;93.26
11329;BME280;5719;42.714;23.732;2022-07-22T03:19:51;94541.41;;;15.66;93.07
11329;BME280;5719;42.714;23.732;2022-07-22T03:22:19;94537.28;;;15.64;92.44
11329;BME280;5719;42.714;23.732;2022-07-22T03:24:46;94539.50;;;15.68;92.76
11329;BME280;5719;42.714;23.732;2022-07-22T03:27:13;94539.50;;;15.68;92.52
11329;BME280;5719;42.714;23.732;2022-07-22T03:29:40;94543.34;;;15.64;92.93
11329;BME280;5719;42.714;23.732;2022-07-22T03:32:06;94538.69;;;15.58;94.18
11329;BME280;5719;42.714;23.732;2022-07-22T03:34:33;94548.69;;;15.53;95.48
11329;BME280;5719;42.714;23.732;2022-07-22T03:37:00;94544.84;;;15.48;95.62
11329;BME280;5719;42.714;23.732;2022-07-22T03:39:29;94546.09;;;15.53;94.93
11329;BME280;5719;42.714;23.732;2022-07-22T03:41:55;94540.22;;;15.51;95.24
11329;BME280;5719;42.714;23.732;2022-07-22T03:44:22;94548.28;;;15.58;94.91
11329;BME280;5719;42.714;23.732;2022-07-22T03:46:49;94549.94;;;15.59;95.56
11329;BME280;5719;42.714;23.732;2022-07-22T03:49:17;94552.38;;;15.60;94.64
11329;BME280;5719;42.714;23.732;2022-07-22T03:51:44;94562.41;;;15.65;95.05
11329;BME280;5719;42.714;23.732;2022-07-22T03:54:11;94566.66;;;15.66;94.46
11329;BME280;5719;42.714;23.732;2022-07-22T03:56:39;94562.13;;;15.68;94.37
11329;BME280;5719;42.714;23.732;2022-07-22T03:59:06;94565.44;;;15.70;94.25
11329;BME280;5719;42.714;23.732;2022-07-22T04:01:33;94569.13;;;15.77;94.34
11329;BME280;5719;42.714;23.732;2022-07-22T04:03:59;94561.56;;;15.84;94.23
11329;BME280;5719;42.714;23.732;2022-07-22T04:06:26;94557.97;;;15.85;94.14
11329;BME280;5719;42.714;23.732;2022-07-22T04:08:53;94563.31;;;15.93;93.97
11329;BME280;5719;42.714;23.732;2022-07-22T04:11:21;94569.66;;;15.90;95.54
11329;BME280;5719;42.714;23.732;2022-07-22T04:13:49;94563.31;;;15.93;95.46
11329;BME280;5719;42.714;23.732;2022-07-22T04:16:16;94566.72;;;16.03;95.41
11329;BME280;5719;42.714;23.732;2022-07-22T04:18:43;94565.22;;;16.10;94.74
11329;BME280;5719;42.714;23.732;2022-07-22T04:21:10;94562.44;;;16.21;94.41
11329;BME280;5719;42.714;23.732;2022-07-22T04:23:37;94564.31;;;16.29;94.89
11329;BME280;5719;42.714;23.732;2022-07-22T04:26:05;94565.38;;;16.36;94.20
11329;BME280;5719;42.714;23.732;2022-07-22T04:28:33;94565.91;;;16.49;93.76
11329;BME280;5719;42.714;23.732;2022-07-22T04:31:02;94568.66;;;16.57;94.35
11329;BME280;5719;42.714;23.732;2022-07-22T04:33:29;94576.56;;;16.65;94.13
11329;BME280;5719;42.714;23.732;2022-07-22T04:35:56;94576.31;;;16.68;95.88
11329;BME280;5719;42.714;23.732;2022-07-22T04:38:23;94572.97;;;16.76;95.96
11329;BME280;5719;42.714;23.732;2022-07-22T04:40:50;94575.94;;;16.90;95.56
11329;BME280;5719;42.714;23.732;2022-07-22T04:43:17;94572.81;;;17.04;94.93
11329;BME280;5719;42.714;23.732;2022-07-22T04:45:44;94577.75;;;17.07;96.16
11329;BME280;5719;42.714;23.732;2022-07-22T04:48:12;94575.50;;;17.12;95.97
11329;BME280;5719;42.714;23.732;2022-07-22T04:50:39;94578.16;;;17.30;95.03
11329;BME280;5719;42.714;23.732;2022-07-22T04:53:06;94581.59;;;17.48;95.61
11329;BME280;5719;42.714;23.732;2022-07-22T04:55:33;94575.41;;;17.67;94.39
11329;BME280;5719;42.714;23.732;2022-07-22T04:58:00;94580.31;;;17.88;94.55
11329;BME280;5719;42.714;23.732;2022-07-22T05:00:27;94580.94;;;18.07;94.42
11329;BME280;5719;42.714;23.732;2022-07-22T05:02:54;94587.78;;;18.26;94.59
11329;BME280;5719;42.714;23.732;2022-07-22T05:05:23;94581.84;;;18.42;95.10
11329;BME280;5719;42.714;23.732;2022-07-22T05:07:51;94592.94;;;18.61;94.16
11329;BME280;5719;42.714;23.732;2022-07-22T05:10:18;94587.97;;;18.84;92.89
11329;BME280;5719;42.714;23.732;2022-07-22T05:12:45;94584.75;;;18.98;92.92
11329;BME280;5719;42.714;23.732;2022-07-22T05:15:12;94596.16;;;19.23;92.33
11329;BME280;5719;42.714;23.732;2022-07-22T05:17:39;94594.75;;;19.45;91.95
11329;BME280;5719;42.714;23.732;2022-07-22T05:20:07;94597.25;;;19.63;91.72
11329;BME280;5719;42.714;23.732;2022-07-22T05:22:35;94596.78;;;19.83;90.66
11329;BME280;5719;42.714;23.732;2022-07-22T05:25:02;94584.78;;;20.05;89.88
11329;BME280;5719;42.714;23.732;2022-07-22T05:27:29;94581.38;;;20.29;89.03
11329;BME280;5719;42.714;23.732;2022-07-22T05:29:57;94587.56;;;20.52;87.47
11329;BME280;5719;42.714;23.732;2022-07-22T05:32:25;94596.88;;;20.71;86.22
11329;BME280;5719;42.714;23.732;2022-07-22T05:34:52;94590.41;;;20.89;85.06
11329;BME280;5719;42.714;23.732;2022-07-22T05:37:19;94591.63;;;21.10;84.27
11329;BME280;5719;42.714;23.732;2022-07-22T05:39:47;94596.03;;;21.25;82.66
11329;BME280;5719;42.714;23.732;2022-07-22T05:42:14;94603.84;;;21.41;81.50
11329;BME280;5719;42.714;23.732;2022-07-22T05:44:41;94598.78;;;21.63;78.56
11329;BME280;5719;42.714;23.732;2022-07-22T05:47:08;94593.53;;;21.85;76.24
11329;BME280;5719;42.714;23.732;2022-07-22T05:49:35;94598.81;;;22.08;73.66
11329;BME280;5719;42.714;23.732;2022-07-22T05:52:02;94599.31;;;22.26;72.13
11329;BME280;5719;42.714;23.732;2022-07-22T05:54:29;94601.44;;;22.45;73.02
11329;BME280;5719;42.714;23.732;2022-07-22T05:56:57;94599.41;;;22.70;71.43
11329;BME280;5719;42.714;23.732;2022-07-22T05:59:24;94598.44;;;22.86;70.39
11329;BME280;5719;42.714;23.732;2022-07-22T06:01:51;94598.06;;;23.04;69.22
11329;BME280;5719;42.714;23.732;2022-07-22T06:04:18;94607.78;;;23.18;68.23
11329;BME280;5719;42.714;23.732;2022-07-22T06:06:46;94607.50;;;23.27;66.90
11329;BME280;5719;42.714;23.732;2022-07-22T06:09:13;94601.66;;;23.47;65.43
11329;BME280;5719;42.714;23.732;2022-07-22T06:11:40;94609.69;;;23.53;65.24
11329;BME280;5719;42.714;23.732;2022-07-22T06:14:08;94601.78;;;23.74;65.48
11329;BME280;5719;42.714;23.732;2022-07-22T06:16:35;94605.25;;;23.96;64.50
11329;BME280;5719;42.714;23.732;2022-07-22T06:19:02;94603.56;;;24.10;62.54
11329;BME280;5719;42.714;23.732;2022-07-22T06:21:29;94605.59;;;24.29;63.84
11329;BME280;5719;42.714;23.732;2022-07-22T06:23:56;94599.34;;;24.36;62.09
11329;BME280;5719;42.714;23.732;2022-07-22T06:26:23;94604.88;;;24.41;62.35
11329;BME280;5719;42.714;23.732;2022-07-22T06:28:50;94602.88;;;24.44;62.20
11329;BME280;5719;42.714;23.732;2022-07-22T06:31:18;94600.09;;;24.30;62.54
11329;BME280;5719;42.714;23.732;2022-07-22T06:33:45;94599.75;;;24.33;62.58
11329;BME280;5719;42.714;23.732;2022-07-22T06:36:12;94594.28;;;24.41;62.06
11329;BME280;5719;42.714;23.732;2022-07-22T06:38:40;94597.19;;;24.47;61.72
11329;BME280;5719;42.714;23.732;2022-07-22T06:41:07;94603.09;;;24.49;61.95
11329;BME280;5719;42.714;23.732;2022-07-22T06:43:33;94605.06;;;24.68;61.75
11329;BME280;5719;42.714;23.732;2022-07-22T06:46:00;94601.63;;;24.95;59.16
11329;BME280;5719;42.714;23.732;2022-07-22T06:48:29;94603.56;;;25.14;60.64
11329;BME280;5719;42.714;23.732;2022-07-22T06:50:56;94602.41;;;25.30;60.29
11329;BME280;5719;42.714;23.732;2022-07-22T06:53:23;94602.44;;;25.36;59.37
11329;BME280;5719;42.714;23.732;2022-07-22T06:55:50;94602.56;;;25.63;58.25
11329;BME280;5719;42.714;23.732;2022-07-22T06:58:16;94604.88;;;25.79;56.58
11329;BME280;5719;42.714;23.732;2022-07-22T07:00:43;94600.59;;;25.91;58.23
11329;BME280;5719;42.714;23.732;2022-07-22T07:03:10;94598.38;;;26.01;55.95
11329;BME280;5719;42.714;23.732;2022-07-22T07:05:39;94607.59;;;26.12;54.44
11329;BME280;5719;42.714;23.732;2022-07-22T07:08:06;94607.97;;;25.96;54.65
11329;BME280;5719;42.714;23.732;2022-07-22T07:10:33;94609.63;;;26.10;55.14
11329;BME280;5719;42.714;23.732;2022-07-22T07:13:01;94616.56;;;26.04;54.81
11329;BME280;5719;42.714;23.732;2022-07-22T07:15:28;94611.25;;;26.04;57.79
11329;BME280;5719;42.714;23.732;2022-07-22T07:17:56;94611.72;;;26.41;56.19
11329;BME280;5719;42.714;23.732;2022-07-22T07:20:23;94609.06;;;26.54;52.90
11329;BME280;5719;42.714;23.732;2022-07-22T07:22:52;94609.47;;;26.64;55.08
11329;BME280;5719;42.714;23.732;2022-07-22T07:25:19;94606.63;;;26.92;53.88
11329;BME280;5719;42.714;23.732;2022-07-22T07:27:46;94608.66;;;26.90;51.75
11329;BME280;5719;42.714;23.732;2022-07-22T07:30:13;94607.19;;;27.00;52.13
11329;BME280;5719;42.714;23.732;2022-07-22T07:32:40;94607.09;;;27.40;51.24
11329;BME280;5719;42.714;23.732;2022-07-22T07:35:08;94612.72;;;27.69;49.63
11329;BME280;5719;42.714;23.732;2022-07-22T07:37:35;94615.56;;;27.74;48.15
11329;BME280;5719;42.714;23.732;2022-07-22T07:40:05;94613.34;;;27.71;48.28
11329;BME280;5719;42.714;23.732;2022-07-22T07:42:32;94616.34;;;27.82;47.77
11329;BME280;5719;42.714;23.732;2022-07-22T07:44:59;94614.78;;;28.05;48.12
11329;BME280;5719;42.714;23.732;2022-07-22T07:47:26;94615.13;;;28.22;44.76
11329;BME280;5719;42.714;23.732;2022-07-22T07:49:53;94615.69;;;28.31;44.39
11329;BME280;5719;42.714;23.732;2022-07-22T07:52:20;94611.22;;;28.24;45.75
11329;BME280;5719;42.714;23.732;2022-07-22T07:54:47;94625.06;;;28.33;45.70
11329;BME280;5719;42.714;23.732;2022-07-22T07:57:16;94613.81;;;28.38;44.75
11329;BME280;5719;42.714;23.732;2022-07-22T07:59:43;94624.81;;;28.41;45.50
11329;BME280;5719;42.714;23.732;2022-07-22T08:02:10;94624.97;;;28.46;44.73
11329;BME280;5719;42.714;23.732;2022-07-22T08:04:37;94619.38;;;28.54;44.61
11329;BME280;5719;42.714;23.732;2022-07-22T08:07:04;94630.06;;;28.79;43.77
11329;BME280;5719;42.714;23.732;2022-07-22T08:09:31;94627.50;;;28.91;42.46
11329;BME280;5719;42.714;23.732;2022-07-22T08:12:00;94618.44;;;29.16;42.87
11329;BME280;5719;42.714;23.732;2022-07-22T08:14:29;94624.72;;;29.22;43.03
11329;BME280;5719;42.714;23.732;2022-07-22T08:16:56;94621.97;;;29.35;42.82
11329;BME280;5719;42.714;23.732;2022-07-22T08:19:23;94610.28;;;29.36;41.73
11329;BME280;5719;42.714;23.732;2022-07-22T08:21:50;94620.69;;;29.56;40.99
11329;BME280;5719;42.714;23.732;2022-07-22T08:24:17;94618.56;;;29.46;40.78
11329;BME280;5719;42.714;23.732;2022-07-22T08:26:44;94622.06;;;29.77;41.14
11329;BME280;5719;42.714;23.732;2022-07-22T08:29:11;94625.28;;;29.85;39.62
11329;BME280;5719;42.714;23.732;2022-07-22T08:31:39;94623.13;;;29.94;41.09
11329;BME280;5719;42.714;23.732;2022-07-22T08:34:06;94623.00;;;30.18;40.36
11329;BME280;5719;42.714;23.732;2022-07-22T08:36:33;94624.38;;;30.21;39.79
11329;BME280;5719;42.714;23.732;2022-07-22T08:39:00;94626.03;;;30.22;38.97
11329;BME280;5719;42.714;23.732;2022-07-22T08:41:28;94627.66;;;30.35;38.75
11329;BME280;5719;42.714;23.732;2022-07-22T08:44:00;94625.53;;;30.43;38.30
11329;BME280;5719;42.714;23.732;2022-07-22T08:46:28;94619.41;;;30.54;39.59
11329;BME280;5719;42.714;23.732;2022-07-22T08:48:56;94625.47;;;30.85;38.10
11329;BME280;5719;42.714;23.732;2022-07-22T08:51:26;94622.34;;;30.88;37.97
11329;BME280;5719;42.714;23.732;2022-07-22T08:53:53;94627.25;;;31.02;37.09
11329;BME280;5719;42.714;23.732;2022-07-22T08:56:20;94624.81;;;31.24;37.47
11329;BME280;5719;42.714;23.732;2022-07-22T08:58:47;94624.34;;;31.62;36.86
11329;BME280;5719;42.714;23.732;2022-07-22T09:01:16;94629.97;;;31.77;36.73
11329;BME280;5719;42.714;23.732;2022-07-22T09:03:46;94626.75;;;32.03;36.38
11329;BME280;5719;42.714;23.732;2022-07-22T09:06:15;94627.59;;;31.92;36.73
11329;BME280;5719;42.714;23.732;2022-07-22T09:08:52;94631.56;;;31.90;36.89
11329;BME280;5719;42.714;23.732;2022-07-22T09:11:21;94632.94;;;31.92;37.44
11329;BME280;5719;42.714;23.732;2022-07-22T09:13:48;94635.81;;;32.14;37.28
11329;BME280;5719;42.714;23.732;2022-07-22T09:16:16;94638.63;;;32.36;35.82
11329;BME280;5719;42.714;23.732;2022-07-22T09:18:47;94641.63;;;32.68;35.79
11329;BME280;5719;42.714;23.732;2022-07-22T09:21:16;94639.53;;;33.03;35.92
11329;BME280;5719;42.714;23.732;2022-07-22T09:23:43;94635.72;;;33.16;34.31
11329;BME280;5719;42.714;23.732;2022-07-22T09:26:29;94643.75;;;33.16;34.79
11329;BME280;5719;42.714;23.732;2022-07-22T09:28:58;94634.59;;;33.12;34.79
11329;BME280;5719;42.714;23.732;2022-07-22T09:31:25;94630.56;;;33.31;35.19
11329;BME280;5719;42.714;23.732;2022-07-22T09:33:53;94627.25;;;33.62;34.83
11329;BME280;5719;42.714;23.732;2022-07-22T09:36:22;94636.16;;;33.84;35.96
11329;BME280;5719;42.714;23.732;2022-07-22T09:38:49;94636.59;;;33.98;32.25
11329;BME280;5719;42.714;23.732;2022-07-22T09:41:16;94634.81;;;34.09;31.53
11329;BME280;5719;42.714;23.732;2022-07-22T09:43:44;94642.06;;;34.30;31.21
11329;BME280;5719;42.714;23.732;2022-07-22T09:46:12;94635.31;;;34.54;30.85
11329;BME280;5719;42.714;23.732;2022-07-22T09:48:40;94636.06;;;34.71;30.28
11329;BME280;5719;42.714;23.732;2022-07-22T09:51:07;94630.84;;;34.91;30.00
11329;BME280;5719;42.714;23.732;2022-07-22T09:53:36;94634.94;;;34.99;30.77
11329;BME280;5719;42.714;23.732;2022-07-22T09:56:05;94635.28;;;35.08;30.72
11329;BME280;5719;42.714;23.732;2022-07-22T09:58:32;94632.94;;;35.16;29.64
11329;BME280;5719;42.714;23.732;2022-07-22T10:01:03;94635.94;;;35.25;29.09
11329;BME280;5719;42.714;23.732;2022-07-22T10:03:32;94638.19;;;35.38;28.64
11329;BME280;5719;42.714;23.732;2022-07-22T10:06:01;94636.59;;;35.42;30.04
11329;BME280;5719;42.714;23.732;2022-07-22T10:08:30;94642.97;;;35.26;30.07
11329;BME280;5719;42.714;23.732;2022-07-22T10:11:01;94636.00;;;35.30;30.50
11329;BME280;5719;42.714;23.732;2022-07-22T10:13:29;94639.75;;;35.34;29.18
11329;BME280;5719;42.714;23.732;2022-07-22T10:15:58;94631.94;;;35.27;29.77
11329;BME280;5719;42.714;23.732;2022-07-22T10:18:25;94639.69;;;35.24;30.85
11329;BME280;5719;42.714;23.732;2022-07-22T10:21:04;94634.66;;;35.32;29.23
11329;BME280;5719;42.714;23.732;2022-07-22T10:23:32;94636.09;;;35.50;28.24
11329;BME280;5719;42.714;23.732;2022-07-22T10:26:02;94634.31;;;35.61;28.25
11329;BME280;5719;42.714;23.732;2022-07-22T10:28:32;94639.25;;;35.37;28.65
11329;BME280;5719;42.714;23.732;2022-07-22T10:31:19;94628.22;;;35.38;28.57
11329;BME280;5719;42.714;23.732;2022-07-22T10:33:49;94630.22;;;35.58;26.37
11329;BME280;5719;42.714;23.732;2022-07-22T10:36:30;94636.53;;;35.74;28.65
11329;BME280;5719;42.714;23.732;2022-07-22T10:39:06;94636.59;;;35.84;29.12
11329;BME280;5719;42.714;23.732;2022-07-22T10:41:36;94636.53;;;35.79;27.99
11329;BME280;5719;42.714;23.732;2022-07-22T10:44:04;94633.34;;;35.87;28.89
11329;BME280;5719;42.714;23.732;2022-07-22T10:46:51;94636.41;;;36.06;28.46
11329;BME280;5719;42.714;23.732;2022-07-22T10:49:20;94644.16;;;35.97;29.52
11329;BME280;5719;42.714;23.732;2022-07-22T10:52:09;94641.28;;;36.09;29.19
11329;BME280;5719;42.714;23.732;2022-07-22T10:57:38;94640.25;;;36.20;28.75
11329;BME280;5719;42.714;23.732;2022-07-22T11:00:06;94643.19;;;36.18;26.52
11329;BME280;5719;42.714;23.732;2022-07-22T11:02:34;94644.00;;;36.14;28.02
11329;BME280;5719;42.714;23.732;2022-07-22T11:05:04;94641.88;;;36.31;29.47
11329;BME280;5719;42.714;23.732;2022-07-22T11:07:31;94648.34;;;36.25;28.25
11329;BME280;5719;42.714;23.732;2022-07-22T11:10:09;94641.88;;;36.31;27.20
11329;BME280;5719;42.714;23.732;2022-07-22T11:12:38;94636.97;;;36.13;27.27
11329;BME280;5719;42.714;23.732;2022-07-22T11:15:06;94631.84;;;36.11;28.48
11329;BME280;5719;42.714;23.732;2022-07-22T11:17:34;94629.91;;;36.02;28.37
11329;BME280;5719;42.714;23.732;2022-07-22T11:20:02;94642.38;;;36.13;28.72
11329;BME280;5719;42.714;23.732;2022-07-22T11:22:30;94639.06;;;36.01;27.63
11329;BME280;5719;42.714;23.732;2022-07-22T11:25:28;94638.03;;;36.07;28.20
11329;BME280;5719;42.714;23.732;2022-07-22T11:27:56;94630.56;;;36.24;27.70
11329;BME280;5719;42.714;23.732;2022-07-22T11:30:23;94642.38;;;36.13;28.58
11329;BME280;5719;42.714;23.732;2022-07-22T11:32:50;94640.41;;;35.98;27.70
11329;BME280;5719;42.714;23.732;2022-07-22T11:35:17;94640.09;;;35.89;28.83
11329;BME280;5719;42.714;23.732;2022-07-22T11:37:55;94642.38;;;36.13;28.04
11329;BME280;5719;42.714;23.732;2022-07-22T11:40:22;94634.88;;;36.25;28.67
11329;BME280;5719;42.714;23.732;2022-07-22T11:43:02;94639.19;;;36.36;27.79
11329;BME280;5719;42.714;23.732;2022-07-22T11:45:30;94636.53;;;36.51;28.46
11329;BME280;5719;42.714;23.732;2022-07-22T11:47:57;94639.81;;;36.58;28.11
11329;BME280;5719;42.714;23.732;2022-07-22T12:00:31;94634.72;;;36.72;27.50
11329;BME280;5719;42.714;23.732;2022-07-22T12:02:58;94638.75;;;36.64;27.69
11329;BME280;5719;42.714;23.732;2022-07-22T12:05:25;94631.72;;;36.63;27.40
11329;BME280;5719;42.714;23.732;2022-07-22T12:07:52;94634.41;;;36.58;26.92
11329;BME280;5719;42.714;23.732;2022-07-22T12:10:19;94644.34;;;36.48;26.59
11329;BME280;5719;42.714;23.732;2022-07-22T12:12:46;94638.63;;;36.14;27.20
11329;BME280;5719;42.714;23.732;2022-07-22T12:15:13;94628.41;;;36.21;28.25
11329;BME280;5719;42.714;23.732;2022-07-22T12:17:42;94627.91;;;36.44;27.04
11329;BME280;5719;42.714;23.732;2022-07-22T12:20:10;94630.09;;;36.62;27.85
11329;BME280;5719;42.714;23.732;2022-07-22T12:22:44;94635.22;;;36.69;26.91
11329;BME280;5719;42.714;23.732;2022-07-22T12:25:12;94619.63;;;36.86;26.45
11329;BME280;5719;42.714;23.732;2022-07-22T12:27:39;94620.44;;;36.97;27.34
11329;BME280;5719;42.714;23.732;2022-07-22T12:30:11;94621.78;;;37.09;27.86
11329;BME280;5719;42.714;23.732;2022-07-22T12:32:47;94629.06;;;37.14;27.19
11329;BME280;5719;42.714;23.732;2022-07-22T12:35:15;94620.16;;;37.13;25.31
11329;BME280;5719;42.714;23.732;2022-07-22T12:37:43;94627.44;;;37.13;26.10
11329;BME280;5719;42.714;23.732;2022-07-22T12:40:12;94623.66;;;36.99;26.85
11329;BME280;5719;42.714;23.732;2022-07-22T12:42:45;94608.03;;;36.85;26.09
11329;BME280;5719;42.714;23.732;2022-07-22T12:45:14;94617.19;;;36.69;26.23
11329;BME280;5719;42.714;23.732;2022-07-22T12:47:48;94625.81;;;36.56;26.71
11329;BME280;5719;42.714;23.732;2022-07-22T12:50:25;94621.75;;;36.59;27.34
11329;BME280;5719;42.714;23.732;2022-07-22T12:52:55;94621.78;;;36.64;25.89
11329;BME280;5719;42.714;23.732;2022-07-22T12:55:22;94614.75;;;36.78;27.21
11329;BME280;5719;42.714;23.732;2022-07-22T12:57:50;94620.44;;;36.81;25.54
11329;BME280;5719;42.714;23.732;2022-07-22T13:00:18;94603.19;;;36.82;25.03
11329;BME280;5719;42.714;23.732;2022-07-22T13:02:45;94607.53;;;37.09;26.01
11329;BME280;5719;42.714;23.732;2022-07-22T13:05:14;94625.31;;;37.15;24.18
11329;BME280;5719;42.714;23.732;2022-07-22T13:07:41;94615.00;;;37.02;22.80
11329;BME280;5719;42.714;23.732;2022-07-22T13:10:11;94620.41;;;37.02;24.15
11329;BME280;5719;42.714;23.732;2022-07-22T13:12:39;94621.25;;;36.97;24.87
11329;BME280;5719;42.714;23.732;2022-07-22T13:15:07;94619.59;;;36.91;23.67
11329;BME280;5719;42.714;23.732;2022-07-22T13:17:35;94624.72;;;36.88;24.54